createdAt,value
2019-03-12T17:14:08.034Z,58.26
2019-03-12T17:16:37.769Z,44.24
2019-03-12T17:19:07.770Z,43.06
2019-03-12T17:21:37.750Z,40.42
2019-03-12T17:27:31.001Z,39.41
2019-03-12T17:30:00.558Z,39.69
2019-03-12T17:32:30.068Z,40.14
2019-03-12T17:34:59.441Z,39.85
2019-03-12T17:40:52.805Z,29.54
2019-03-12T17:43:22.128Z,26.75
2019-03-12T17:45:51.519Z,30.84
2019-03-12T17:48:20.890Z,33.07
2019-03-12T17:50:55.149Z,35.76
2019-03-12T17:53:27.834Z,36.63
2019-03-12T17:56:00.215Z,36.73
2019-03-12T17:58:29.653Z,39.23
2019-03-12T18:00:59.080Z,38.99
2019-03-12T18:03:28.495Z,39.82
2019-03-12T18:05:57.941Z,39.44
2019-03-12T18:08:27.446Z,39.45
2019-03-12T18:10:57.142Z,39.65
2019-03-12T18:13:28.023Z,39.65
2019-03-12T18:15:57.389Z,40.58
2019-03-12T18:18:26.890Z,40.58
2019-03-12T18:20:56.480Z,41.60
2019-03-12T18:23:26.004Z,40.64
2019-03-12T18:25:55.726Z,40.64
2019-03-12T18:28:25.118Z,42.10
2019-03-12T18:30:54.572Z,41.09
2019-03-12T18:33:24.156Z,40.94
2019-03-12T18:35:53.582Z,40.90
2019-03-12T18:38:23.009Z,41.44
2019-03-12T18:40:52.418Z,40.88
2019-03-12T18:43:21.800Z,40.58
2019-03-12T18:45:51.282Z,40.95
2019-03-12T18:48:20.662Z,40.44
2019-03-12T18:50:50.159Z,40.32
2019-03-12T18:53:19.766Z,40.21
2019-03-12T18:55:59.712Z,40.63
2019-03-12T18:58:29.096Z,39.96
2019-03-12T19:01:00.715Z,40.52
2019-03-12T19:03:30.161Z,39.49
2019-03-12T19:05:59.772Z,39.60
2019-03-12T19:08:29.381Z,39.09
2019-03-12T19:10:58.805Z,39.18
2019-03-12T19:13:28.379Z,38.51
2019-03-12T19:15:57.768Z,40.26
2019-03-12T19:18:27.302Z,38.67
2019-03-12T19:20:56.698Z,39.70
2019-03-12T19:23:26.113Z,38.35
2019-03-12T19:25:56.205Z,38.21
2019-03-12T19:28:25.619Z,38.52
2019-03-12T19:31:05.307Z,38.12
2019-03-12T19:33:34.692Z,37.90
2019-03-12T19:36:04.297Z,38.32
2019-03-12T19:38:33.735Z,38.32
2019-03-12T19:41:03.862Z,38.19
2019-03-12T19:43:33.332Z,38.42
2019-03-12T19:46:02.704Z,37.70
2019-03-12T19:48:32.134Z,39.99
2019-03-12T19:51:01.516Z,38.80
2019-03-12T19:53:30.909Z,38.30
2019-03-12T19:56:00.620Z,38.11
2019-03-12T19:58:30.045Z,38.44
2019-03-12T20:01:00.892Z,38.45
2019-03-12T20:03:30.417Z,37.39
2019-03-12T20:05:59.809Z,37.39
2019-03-12T20:08:29.298Z,37.56
2019-03-12T20:12:00.885Z,37.90
2019-03-12T20:15:29.430Z,37.83
2019-03-12T20:18:47.885Z,38.48
2019-03-12T20:21:48.242Z,39.26
2019-03-12T20:25:16.015Z,37.93
2019-03-12T20:28:28.477Z,38.57
2019-03-12T20:31:34.203Z,38.05
2019-03-12T20:34:53.687Z,37.70
2019-03-12T20:37:59.833Z,38.52
2019-03-12T20:41:09.233Z,38.93
2019-03-12T20:44:18.748Z,37.78
2019-03-12T20:47:43.212Z,37.41
2019-03-12T20:50:48.689Z,37.43
2019-03-12T20:54:16.913Z,37.84
2019-03-12T20:57:38.429Z,37.65
2019-03-12T21:00:44.855Z,37.82
2019-03-12T21:03:53.825Z,38.74
2019-03-12T21:06:50.830Z,38.35
2019-03-12T21:10:22.586Z,38.23
2019-03-12T21:13:31.980Z,39.03
2019-03-12T21:16:51.189Z,38.53
2019-03-12T21:20:21.154Z,38.60
2019-03-12T21:23:42.229Z,40.48
2019-03-12T21:26:52.734Z,39.70
2019-03-12T21:29:45.675Z,39.25
2019-03-12T21:32:16.591Z,39.26
2019-03-12T21:34:46.406Z,39.84
2019-03-12T21:37:16.218Z,38.97
2019-03-12T21:39:55.288Z,39.04
2019-03-12T21:42:16.764Z,39.92
2019-03-12T21:44:46.145Z,39.32
2019-03-12T21:47:15.576Z,39.41
2019-03-12T21:49:45.186Z,39.68
2019-03-12T21:52:14.641Z,40.18
2019-03-12T21:54:44.399Z,40.44
2019-03-12T21:57:13.777Z,40.33
2019-03-12T21:59:43.158Z,40.78
2019-03-12T22:02:12.575Z,40.25
2019-03-12T22:04:41.938Z,39.94
2019-03-12T22:07:11.418Z,39.50
2019-03-12T22:09:40.790Z,41.49
2019-03-12T22:12:10.163Z,39.47
2019-03-12T22:14:39.565Z,40.99
2019-03-12T22:17:09.047Z,39.76
2019-03-12T22:19:38.554Z,40.00
2019-03-12T22:22:30.158Z,40.45
2019-03-12T22:24:59.557Z,40.30
2019-03-12T22:27:28.925Z,39.64
2019-03-12T22:29:58.321Z,40.65
2019-03-12T22:32:27.744Z,40.88
2019-03-12T22:34:57.130Z,40.10
2019-03-12T22:37:26.565Z,40.22
2019-03-12T22:39:55.954Z,40.17
2019-03-12T22:42:25.498Z,40.16
2019-03-12T22:44:55.107Z,40.41
2019-03-12T22:47:24.483Z,40.69
2019-03-12T22:49:54.015Z,40.69
2019-03-12T22:52:23.394Z,40.46
2019-03-12T22:54:52.792Z,40.10
2019-03-12T22:57:22.161Z,39.87
2019-03-12T22:59:51.792Z,40.93
2019-03-12T23:02:21.361Z,40.20
2019-03-12T23:04:50.835Z,40.30
2019-03-12T23:07:20.243Z,39.77
2019-03-12T23:09:49.586Z,39.58
2019-03-12T23:12:19.494Z,40.18
2019-03-12T23:14:48.936Z,40.03
2019-03-12T23:17:18.281Z,39.73
2019-03-12T23:19:48.071Z,40.30
2019-03-12T23:22:17.522Z,39.74
2019-03-12T23:24:46.931Z,40.58
2019-03-12T23:27:16.404Z,41.78
2019-03-12T23:29:45.889Z,40.00
2019-03-12T23:32:16.088Z,40.23
2019-03-12T23:34:45.474Z,39.92
2019-03-12T23:37:15.076Z,39.95
2019-03-12T23:39:44.476Z,39.61
2019-03-12T23:42:29.337Z,39.81
2019-03-12T23:44:58.727Z,39.61
2019-03-12T23:47:28.610Z,39.43
2019-03-12T23:49:58.024Z,39.97
2019-03-12T23:52:27.403Z,40.70
2019-03-12T23:54:56.798Z,39.33
2019-03-12T23:57:26.215Z,39.25
2019-03-12T23:59:55.638Z,39.17
